sensor_id;sensor_type;location;lat;lon;timestamp;P1;durP1;ratioP1;P2;durP2;ratioP2
43325;SDS011;28920;59.862;30.636;2023-02-24T00:01:47;18.08;;;10.75;;
43325;SDS011;28920;59.862;30.636;2023-02-24T00:04:17;17.90;;;9.40;;
43325;SDS011;28920;59.862;30.636;2023-02-24T00:06:44;18.73;;;9.77;;
43325;SDS011;28920;59.862;30.636;2023-02-24T00:09:11;13.77;;;8.40;;
43325;SDS011;28920;59.862;30.636;2023-02-24T00:11:41;16.77;;;9.40;;
43325;SDS011;28920;59.862;30.636;2023-02-24T00:14:10;21.10;;;9.20;;
43325;SDS011;28920;59.862;30.636;2023-02-24T00:16:37;20.73;;;10.00;;
43325;SDS011;28920;59.862;30.636;2023-02-24T00:19:04;17.20;;;9.05;;
43325;SDS011;28920;59.862;30.636;2023-02-24T00:21:32;22.00;;;10.25;;
43325;SDS011;28920;59.862;30.636;2023-02-24T00:23:59;22.00;;;10.23;;
43325;SDS011;28920;59.862;30.636;2023-02-24T00:26:27;23.33;;;10.30;;
43325;SDS011;28920;59.862;30.636;2023-02-24T00:28:54;20.48;;;10.05;;
43325;SDS011;28920;59.862;30.636;2023-02-24T00:31:21;21.65;;;10.02;;
43325;SDS011;28920;59.862;30.636;2023-02-24T00:33:49;19.80;;;9.77;;
43325;SDS011;28920;59.862;30.636;2023-02-24T00:36:16;16.67;;;8.98;;
43325;SDS011;28920;59.862;30.636;2023-02-24T00:38:49;15.40;;;8.57;;
43325;SDS011;28920;59.862;30.636;2023-02-24T00:41:16;18.75;;;9.63;;
43325;SDS011;28920;59.862;30.636;2023-02-24T00:43:45;19.37;;;8.80;;
43325;SDS011;28920;59.862;30.636;2023-02-24T00:46:13;18.87;;;10.02;;
43325;SDS011;28920;59.862;30.636;2023-02-24T00:48:42;20.42;;;9.85;;
43325;SDS011;28920;59.862;30.636;2023-02-24T00:51:11;16.75;;;8.88;;
43325;SDS011;28920;59.862;30.636;2023-02-24T00:53:38;17.45;;;9.60;;
43325;SDS011;28920;59.862;30.636;2023-02-24T00:56:05;16.65;;;9.13;;
43325;SDS011;28920;59.862;30.636;2023-02-24T00:58:33;19.98;;;10.32;;
43325;SDS011;28920;59.862;30.636;2023-02-24T01:01:01;20.23;;;10.00;;
43325;SDS011;28920;59.862;30.636;2023-02-24T01:03:28;21.23;;;10.73;;
43325;SDS011;28920;59.862;30.636;2023-02-24T01:05:55;20.55;;;10.10;;
43325;SDS011;28920;59.862;30.636;2023-02-24T01:08:22;24.12;;;10.32;;
43325;SDS011;28920;59.862;30.636;2023-02-24T01:10:55;23.12;;;11.43;;
43325;SDS011;28920;59.862;30.636;2023-02-24T01:13:43;21.00;;;9.98;;
43325;SDS011;28920;59.862;30.636;2023-02-24T01:16:10;21.58;;;11.07;;
43325;SDS011;28920;59.862;30.636;2023-02-24T01:18:39;20.00;;;9.50;;
43325;SDS011;28920;59.862;30.636;2023-02-24T01:21:08;19.05;;;9.73;;
43325;SDS011;28920;59.862;30.636;2023-02-24T01:23:34;21.50;;;10.85;;
43325;SDS011;28920;59.862;30.636;2023-02-24T01:26:01;17.30;;;9.80;;
43325;SDS011;28920;59.862;30.636;2023-02-24T01:28:28;19.92;;;9.75;;
43325;SDS011;28920;59.862;30.636;2023-02-24T01:30:59;19.62;;;10.32;;
43325;SDS011;28920;59.862;30.636;2023-02-24T01:35:55;16.98;;;9.52;;
43325;SDS011;28920;59.862;30.636;2023-02-24T01:38:22;20.37;;;9.50;;
43325;SDS011;28920;59.862;30.636;2023-02-24T01:40:54;21.00;;;9.40;;
43325;SDS011;28920;59.862;30.636;2023-02-24T01:43:21;21.45;;;10.52;;
43325;SDS011;28920;59.862;30.636;2023-02-24T01:45:49;23.67;;;10.52;;
43325;SDS011;28920;59.862;30.636;2023-02-24T01:48:16;22.17;;;11.18;;
43325;SDS011;28920;59.862;30.636;2023-02-24T01:50:43;21.25;;;10.07;;
43325;SDS011;28920;59.862;30.636;2023-02-24T01:53:11;17.12;;;10.15;;
43325;SDS011;28920;59.862;30.636;2023-02-24T01:55:39;16.05;;;8.95;;
43325;SDS011;28920;59.862;30.636;2023-02-24T01:58:11;18.95;;;10.05;;
43325;SDS011;28920;59.862;30.636;2023-02-24T02:00:38;22.65;;;10.60;;
43325;SDS011;28920;59.862;30.636;2023-02-24T02:05:36;21.52;;;9.93;;
43325;SDS011;28920;59.862;30.636;2023-02-24T02:08:04;21.87;;;10.30;;
43325;SDS011;28920;59.862;30.636;2023-02-24T02:10:31;20.73;;;9.82;;
43325;SDS011;28920;59.862;30.636;2023-02-24T02:13:01;18.70;;;9.07;;
43325;SDS011;28920;59.862;30.636;2023-02-24T02:15:52;18.15;;;9.65;;
43325;SDS011;28920;59.862;30.636;2023-02-24T02:18:24;24.25;;;11.30;;
43325;SDS011;28920;59.862;30.636;2023-02-24T02:23:52;19.20;;;10.30;;
43325;SDS011;28920;59.862;30.636;2023-02-24T02:26:28;19.27;;;9.68;;
43325;SDS011;28920;59.862;30.636;2023-02-24T02:32:07;19.50;;;9.05;;
43325;SDS011;28920;59.862;30.636;2023-02-24T02:34:45;18.42;;;9.70;;
43325;SDS011;28920;59.862;30.636;2023-02-24T02:37:16;21.00;;;10.18;;
43325;SDS011;28920;59.862;30.636;2023-02-24T02:39:46;20.52;;;11.02;;
43325;SDS011;28920;59.862;30.636;2023-02-24T02:42:19;14.30;;;7.55;;
43325;SDS011;28920;59.862;30.636;2023-02-24T02:44:52;20.50;;;9.93;;
43325;SDS011;28920;59.862;30.636;2023-02-24T02:47:22;18.70;;;9.90;;
43325;SDS011;28920;59.862;30.636;2023-02-24T02:49:51;17.92;;;10.05;;
43325;SDS011;28920;59.862;30.636;2023-02-24T02:52:20;19.77;;;9.40;;
43325;SDS011;28920;59.862;30.636;2023-02-24T02:54:48;24.10;;;12.55;;
43325;SDS011;28920;59.862;30.636;2023-02-24T02:57:18;22.37;;;10.95;;
43325;SDS011;28920;59.862;30.636;2023-02-24T02:59:48;22.95;;;9.88;;
43325;SDS011;28920;59.862;30.636;2023-02-24T03:02:17;24.90;;;10.90;;
43325;SDS011;28920;59.862;30.636;2023-02-24T03:04:48;20.62;;;10.27;;
43325;SDS011;28920;59.862;30.636;2023-02-24T03:07:17;18.77;;;9.98;;
43325;SDS011;28920;59.862;30.636;2023-02-24T03:09:45;15.00;;;8.35;;
43325;SDS011;28920;59.862;30.636;2023-02-24T03:12:18;17.60;;;9.25;;
43325;SDS011;28920;59.862;30.636;2023-02-24T03:14:46;20.15;;;10.75;;
43325;SDS011;28920;59.862;30.636;2023-02-24T03:17:17;21.00;;;11.07;;
43325;SDS011;28920;59.862;30.636;2023-02-24T03:19:46;18.85;;;9.40;;
43325;SDS011;28920;59.862;30.636;2023-02-24T03:22:20;15.73;;;8.68;;
43325;SDS011;28920;59.862;30.636;2023-02-24T03:24:50;14.15;;;8.35;;
43325;SDS011;28920;59.862;30.636;2023-02-24T03:27:18;17.90;;;9.55;;
43325;SDS011;28920;59.862;30.636;2023-02-24T03:29:49;18.45;;;10.18;;
43325;SDS011;28920;59.862;30.636;2023-02-24T03:32:19;22.92;;;10.90;;
43325;SDS011;28920;59.862;30.636;2023-02-24T03:34:49;19.30;;;11.32;;
43325;SDS011;28920;59.862;30.636;2023-02-24T03:37:21;20.37;;;10.00;;
43325;SDS011;28920;59.862;30.636;2023-02-24T03:39:52;19.50;;;9.32;;
43325;SDS011;28920;59.862;30.636;2023-02-24T03:42:19;21.48;;;10.25;;
43325;SDS011;28920;59.862;30.636;2023-02-24T03:44:47;18.58;;;9.88;;
43325;SDS011;28920;59.862;30.636;2023-02-24T03:47:16;19.30;;;9.45;;
43325;SDS011;28920;59.862;30.636;2023-02-24T03:49:45;23.12;;;11.02;;
43325;SDS011;28920;59.862;30.636;2023-02-24T03:52:16;17.67;;;9.82;;
43325;SDS011;28920;59.862;30.636;2023-02-24T03:54:52;16.52;;;9.25;;
43325;SDS011;28920;59.862;30.636;2023-02-24T03:57:25;19.17;;;10.07;;
43325;SDS011;28920;59.862;30.636;2023-02-24T03:59:54;18.75;;;9.00;;
43325;SDS011;28920;59.862;30.636;2023-02-24T04:02:24;20.27;;;8.90;;
43325;SDS011;28920;59.862;30.636;2023-02-24T04:04:53;20.60;;;10.25;;
43325;SDS011;28920;59.862;30.636;2023-02-24T04:07:28;21.50;;;9.75;;
43325;SDS011;28920;59.862;30.636;2023-02-24T04:10:02;23.12;;;9.80;;
43325;SDS011;28920;59.862;30.636;2023-02-24T04:12:32;18.40;;;9.70;;
43325;SDS011;28920;59.862;30.636;2023-02-24T04:15:04;21.10;;;10.82;;
43325;SDS011;28920;59.862;30.636;2023-02-24T04:17:34;18.65;;;9.38;;
43325;SDS011;28920;59.862;30.636;2023-02-24T04:20:03;20.08;;;9.40;;
43325;SDS011;28920;59.862;30.636;2023-02-24T04:22:36;20.98;;;9.68;;
43325;SDS011;28920;59.862;30.636;2023-02-24T04:25:05;19.70;;;10.20;;
43325;SDS011;28920;59.862;30.636;2023-02-24T04:27:38;21.83;;;12.10;;
43325;SDS011;28920;59.862;30.636;2023-02-24T04:30:08;19.35;;;11.18;;
43325;SDS011;28920;59.862;30.636;2023-02-24T04:32:36;20.40;;;11.20;;
43325;SDS011;28920;59.862;30.636;2023-02-24T04:35:03;18.00;;;9.73;;
43325;SDS011;28920;59.862;30.636;2023-02-24T04:37:32;23.42;;;12.02;;
43325;SDS011;28920;59.862;30.636;2023-02-24T04:40:01;20.00;;;12.40;;
43325;SDS011;28920;59.862;30.636;2023-02-24T04:42:35;24.33;;;12.15;;
43325;SDS011;28920;59.862;30.636;2023-02-24T04:45:06;18.65;;;10.82;;
43325;SDS011;28920;59.862;30.636;2023-02-24T04:47:38;22.17;;;12.13;;
43325;SDS011;28920;59.862;30.636;2023-02-24T04:50:07;21.98;;;11.20;;
43325;SDS011;28920;59.862;30.636;2023-02-24T04:52:36;20.12;;;10.73;;
43325;SDS011;28920;59.862;30.636;2023-02-24T04:55:04;22.98;;;11.88;;
43325;SDS011;28920;59.862;30.636;2023-02-24T04:57:35;21.60;;;10.65;;
43325;SDS011;28920;59.862;30.636;2023-02-24T05:00:03;21.10;;;11.23;;
43325;SDS011;28920;59.862;30.636;2023-02-24T05:02:38;20.70;;;10.68;;
43325;SDS011;28920;59.862;30.636;2023-02-24T05:05:06;19.48;;;10.93;;
43325;SDS011;28920;59.862;30.636;2023-02-24T05:07:33;24.20;;;12.52;;
43325;SDS011;28920;59.862;30.636;2023-02-24T05:10:00;21.73;;;11.82;;
43325;SDS011;28920;59.862;30.636;2023-02-24T05:12:30;20.08;;;11.00;;
43325;SDS011;28920;59.862;30.636;2023-02-24T05:14:57;25.50;;;13.43;;
43325;SDS011;28920;59.862;30.636;2023-02-24T05:17:26;21.00;;;11.30;;
43325;SDS011;28920;59.862;30.636;2023-02-24T05:19:52;22.98;;;12.05;;
43325;SDS011;28920;59.862;30.636;2023-02-24T05:22:49;25.05;;;12.68;;
43325;SDS011;28920;59.862;30.636;2023-02-24T05:25:17;19.17;;;10.65;;
43325;SDS011;28920;59.862;30.636;2023-02-24T05:27:43;21.08;;;10.75;;
43325;SDS011;28920;59.862;30.636;2023-02-24T05:30:11;22.52;;;11.20;;
43325;SDS011;28920;59.862;30.636;2023-02-24T05:32:39;21.73;;;10.65;;
43325;SDS011;28920;59.862;30.636;2023-02-24T05:35:06;24.00;;;10.23;;
43325;SDS011;28920;59.862;30.636;2023-02-24T05:37:35;18.30;;;10.48;;
43325;SDS011;28920;59.862;30.636;2023-02-24T05:40:02;18.20;;;9.75;;
43325;SDS011;28920;59.862;30.636;2023-02-24T05:42:30;21.05;;;10.95;;
43325;SDS011;28920;59.862;30.636;2023-02-24T05:44:59;18.98;;;10.25;;
43325;SDS011;28920;59.862;30.636;2023-02-24T05:47:28;17.48;;;9.68;;
43325;SDS011;28920;59.862;30.636;2023-02-24T05:49:54;17.92;;;10.13;;
43325;SDS011;28920;59.862;30.636;2023-02-24T05:52:23;23.00;;;10.38;;
43325;SDS011;28920;59.862;30.636;2023-02-24T05:54:50;18.40;;;10.13;;
43325;SDS011;28920;59.862;30.636;2023-02-24T05:57:18;19.55;;;8.50;;
43325;SDS011;28920;59.862;30.636;2023-02-24T05:59:47;16.08;;;9.68;;
43325;SDS011;28920;59.862;30.636;2023-02-24T06:02:15;16.98;;;8.93;;
43325;SDS011;28920;59.862;30.636;2023-02-24T06:04:43;20.27;;;9.30;;
43325;SDS011;28920;59.862;30.636;2023-02-24T06:07:16;19.42;;;9.95;;
43325;SDS011;28920;59.862;30.636;2023-02-24T06:09:44;18.23;;;10.18;;
43325;SDS011;28920;59.862;30.636;2023-02-24T06:12:11;29.42;;;14.45;;
43325;SDS011;28920;59.862;30.636;2023-02-24T06:14:39;22.58;;;11.95;;
43325;SDS011;28920;59.862;30.636;2023-02-24T06:17:06;21.67;;;11.20;;
43325;SDS011;28920;59.862;30.636;2023-02-24T06:19:33;20.62;;;11.35;;
43325;SDS011;28920;59.862;30.636;2023-02-24T06:22:00;19.30;;;11.30;;
43325;SDS011;28920;59.862;30.636;2023-02-24T06:24:27;19.42;;;11.35;;
43325;SDS011;28920;59.862;30.636;2023-02-24T06:26:54;19.37;;;10.48;;
43325;SDS011;28920;59.862;30.636;2023-02-24T06:29:28;19.42;;;11.10;;
43325;SDS011;28920;59.862;30.636;2023-02-24T06:31:55;22.50;;;9.75;;
43325;SDS011;28920;59.862;30.636;2023-02-24T06:34:22;24.20;;;12.55;;
43325;SDS011;28920;59.862;30.636;2023-02-24T06:36:50;26.62;;;12.05;;
43325;SDS011;28920;59.862;30.636;2023-02-24T06:39:18;20.23;;;9.23;;
43325;SDS011;28920;59.862;30.636;2023-02-24T06:41:48;22.13;;;10.02;;
43325;SDS011;28920;59.862;30.636;2023-02-24T06:44:15;21.50;;;9.88;;
43325;SDS011;28920;59.862;30.636;2023-02-24T06:46:42;19.10;;;9.65;;
43325;SDS011;28920;59.862;30.636;2023-02-24T06:49:08;21.75;;;11.73;;
43325;SDS011;28920;59.862;30.636;2023-02-24T06:51:35;18.92;;;9.70;;
43325;SDS011;28920;59.862;30.636;2023-02-24T06:54:02;22.30;;;10.82;;
43325;SDS011;28920;59.862;30.636;2023-02-24T06:56:31;19.75;;;10.68;;
43325;SDS011;28920;59.862;30.636;2023-02-24T06:59:03;20.65;;;10.65;;
43325;SDS011;28920;59.862;30.636;2023-02-24T07:01:31;17.85;;;10.45;;
43325;SDS011;28920;59.862;30.636;2023-02-24T07:03:59;19.50;;;9.73;;
43325;SDS011;28920;59.862;30.636;2023-02-24T07:06:43;18.42;;;10.02;;
43325;SDS011;28920;59.862;30.636;2023-02-24T07:09:11;20.55;;;11.02;;
43325;SDS011;28920;59.862;30.636;2023-02-24T07:11:39;22.10;;;10.73;;
43325;SDS011;28920;59.862;30.636;2023-02-24T07:14:06;18.12;;;8.95;;
43325;SDS011;28920;59.862;30.636;2023-02-24T07:16:34;20.35;;;11.38;;
43325;SDS011;28920;59.862;30.636;2023-02-24T07:19:03;15.85;;;9.38;;
43325;SDS011;28920;59.862;30.636;2023-02-24T07:21:34;20.30;;;10.55;;
43325;SDS011;28920;59.862;30.636;2023-02-24T07:24:04;21.77;;;10.93;;
43325;SDS011;28920;59.862;30.636;2023-02-24T07:26:31;22.83;;;10.73;;
43325;SDS011;28920;59.862;30.636;2023-02-24T07:29:00;18.58;;;10.60;;
43325;SDS011;28920;59.862;30.636;2023-02-24T07:31:29;17.35;;;8.85;;
43325;SDS011;28920;59.862;30.636;2023-02-24T07:33:57;20.27;;;9.90;;
43325;SDS011;28920;59.862;30.636;2023-02-24T07:36:27;22.52;;;11.80;;
43325;SDS011;28920;59.862;30.636;2023-02-24T07:38:55;21.65;;;12.20;;
43325;SDS011;28920;59.862;30.636;2023-02-24T07:41:23;20.05;;;10.90;;
43325;SDS011;28920;59.862;30.636;2023-02-24T07:43:51;19.65;;;10.40;;
43325;SDS011;28920;59.862;30.636;2023-02-24T07:46:19;21.77;;;11.48;;
43325;SDS011;28920;59.862;30.636;2023-02-24T07:48:48;23.00;;;12.63;;
43325;SDS011;28920;59.862;30.636;2023-02-24T07:51:16;19.33;;;10.05;;
43325;SDS011;28920;59.862;30.636;2023-02-24T07:53:46;24.30;;;13.27;;
43325;SDS011;28920;59.862;30.636;2023-02-24T07:56:13;18.85;;;10.93;;
43325;SDS011;28920;59.862;30.636;2023-02-24T07:58:43;23.08;;;12.05;;
43325;SDS011;28920;59.862;30.636;2023-02-24T08:01:09;20.77;;;11.35;;
43325;SDS011;28920;59.862;30.636;2023-02-24T08:03:48;18.70;;;9.00;;
43325;SDS011;28920;59.862;30.636;2023-02-24T08:06:16;20.37;;;11.70;;
43325;SDS011;28920;59.862;30.636;2023-02-24T08:08:52;22.27;;;11.63;;
43325;SDS011;28920;59.862;30.636;2023-02-24T08:11:41;17.67;;;10.63;;
43325;SDS011;28920;59.862;30.636;2023-02-24T08:14:11;21.40;;;12.23;;
43325;SDS011;28920;59.862;30.636;2023-02-24T08:16:39;22.98;;;11.63;;
43325;SDS011;28920;59.862;30.636;2023-02-24T08:19:07;30.65;;;16.40;;
43325;SDS011;28920;59.862;30.636;2023-02-24T08:24:06;19.92;;;12.02;;
43325;SDS011;28920;59.862;30.636;2023-02-24T08:26:34;20.45;;;11.23;;
43325;SDS011;28920;59.862;30.636;2023-02-24T08:29:09;21.98;;;11.02;;
43325;SDS011;28920;59.862;30.636;2023-02-24T08:31:36;21.05;;;10.75;;
43325;SDS011;28920;59.862;30.636;2023-02-24T08:34:03;27.23;;;12.35;;
43325;SDS011;28920;59.862;30.636;2023-02-24T08:36:30;24.40;;;11.12;;
43325;SDS011;28920;59.862;30.636;2023-02-24T08:38:57;28.48;;;15.00;;
43325;SDS011;28920;59.862;30.636;2023-02-24T08:41:24;18.80;;;10.82;;
43325;SDS011;28920;59.862;30.636;2023-02-24T08:44:11;23.83;;;11.77;;
43325;SDS011;28920;59.862;30.636;2023-02-24T08:46:37;20.77;;;11.77;;
43325;SDS011;28920;59.862;30.636;2023-02-24T08:49:05;22.50;;;10.65;;
43325;SDS011;28920;59.862;30.636;2023-02-24T08:51:37;23.45;;;11.50;;
43325;SDS011;28920;59.862;30.636;2023-02-24T08:54:09;27.73;;;12.45;;
43325;SDS011;28920;59.862;30.636;2023-02-24T08:56:41;27.65;;;11.30;;
43325;SDS011;28920;59.862;30.636;2023-02-24T08:59:09;29.95;;;12.20;;
43325;SDS011;28920;59.862;30.636;2023-02-24T09:01:54;25.12;;;12.25;;
43325;SDS011;28920;59.862;30.636;2023-02-24T09:04:41;23.52;;;10.52;;
43325;SDS011;28920;59.862;30.636;2023-02-24T09:07:14;22.08;;;11.45;;
43325;SDS011;28920;59.862;30.636;2023-02-24T09:09:41;19.55;;;10.40;;
43325;SDS011;28920;59.862;30.636;2023-02-24T09:12:08;22.87;;;12.63;;
43325;SDS011;28920;59.862;30.636;2023-02-24T09:14:47;25.25;;;11.75;;
43325;SDS011;28920;59.862;30.636;2023-02-24T09:17:14;22.92;;;11.73;;
43325;SDS011;28920;59.862;30.636;2023-02-24T09:19:46;27.67;;;14.02;;
43325;SDS011;28920;59.862;30.636;2023-02-24T09:22:31;25.08;;;13.48;;
43325;SDS011;28920;59.862;30.636;2023-02-24T09:24:59;29.67;;;12.82;;
43325;SDS011;28920;59.862;30.636;2023-02-24T09:27:47;27.17;;;14.95;;
43325;SDS011;28920;59.862;30.636;2023-02-24T09:30:18;25.55;;;12.65;;
43325;SDS011;28920;59.862;30.636;2023-02-24T09:33:04;25.73;;;13.75;;
43325;SDS011;28920;59.862;30.636;2023-02-24T09:35:32;23.38;;;12.15;;
43325;SDS011;28920;59.862;30.636;2023-02-24T09:38:03;23.92;;;12.85;;
43325;SDS011;28920;59.862;30.636;2023-02-24T09:40:31;31.35;;;14.73;;
43325;SDS011;28920;59.862;30.636;2023-02-24T09:43:09;26.70;;;14.27;;
43325;SDS011;28920;59.862;30.636;2023-02-24T09:45:45;36.85;;;16.52;;
43325;SDS011;28920;59.862;30.636;2023-02-24T09:48:13;25.00;;;13.07;;
43325;SDS011;28920;59.862;30.636;2023-02-24T09:50:46;21.37;;;12.00;;
43325;SDS011;28920;59.862;30.636;2023-02-24T09:53:27;26.02;;;13.57;;
43325;SDS011;28920;59.862;30.636;2023-02-24T09:55:56;26.92;;;13.40;;
43325;SDS011;28920;59.862;30.636;2023-02-24T09:58:31;27.73;;;13.93;;
43325;SDS011;28920;59.862;30.636;2023-02-24T10:01:05;24.40;;;12.95;;
43325;SDS011;28920;59.862;30.636;2023-02-24T10:03:47;26.77;;;12.50;;
43325;SDS011;28920;59.862;30.636;2023-02-24T10:06:17;27.60;;;14.95;;
43325;SDS011;28920;59.862;30.636;2023-02-24T10:08:48;27.92;;;12.35;;
43325;SDS011;28920;59.862;30.636;2023-02-24T10:11:15;30.65;;;14.27;;
43325;SDS011;28920;59.862;30.636;2023-02-24T10:16:23;22.80;;;11.93;;
43325;SDS011;28920;59.862;30.636;2023-02-24T10:18:51;27.40;;;12.63;;
43325;SDS011;28920;59.862;30.636;2023-02-24T10:21:26;28.48;;;14.80;;
43325;SDS011;28920;59.862;30.636;2023-02-24T10:23:59;24.73;;;11.93;;
43325;SDS011;28920;59.862;30.636;2023-02-24T10:26:31;25.15;;;12.57;;
43325;SDS011;28920;59.862;30.636;2023-02-24T10:29:12;24.02;;;12.77;;
43325;SDS011;28920;59.862;30.636;2023-02-24T10:31:48;26.25;;;13.48;;
43325;SDS011;28920;59.862;30.636;2023-02-24T10:34:22;25.92;;;12.93;;
43325;SDS011;28920;59.862;30.636;2023-02-24T10:36:56;22.23;;;11.00;;
43325;SDS011;28920;59.862;30.636;2023-02-24T10:39:26;25.17;;;11.35;;
43325;SDS011;28920;59.862;30.636;2023-02-24T10:41:59;22.95;;;11.07;;
43325;SDS011;28920;59.862;30.636;2023-02-24T10:44:40;20.45;;;10.40;;
43325;SDS011;28920;59.862;30.636;2023-02-24T10:47:17;27.05;;;12.88;;
43325;SDS011;28920;59.862;30.636;2023-02-24T10:49:45;20.73;;;11.02;;
43325;SDS011;28920;59.862;30.636;2023-02-24T10:52:25;25.10;;;12.63;;
43325;SDS011;28920;59.862;30.636;2023-02-24T10:55:22;24.87;;;12.93;;
43325;SDS011;28920;59.862;30.636;2023-02-24T10:58:18;25.73;;;11.57;;
43325;SDS011;28920;59.862;30.636;2023-02-24T11:00:53;25.95;;;12.70;;
43325;SDS011;28920;59.862;30.636;2023-02-24T11:03:37;27.87;;;14.20;;
43325;SDS011;28920;59.862;30.636;2023-02-24T11:06:16;28.98;;;15.75;;
43325;SDS011;28920;59.862;30.636;2023-02-24T11:08:56;33.13;;;17.27;;
43325;SDS011;28920;59.862;30.636;2023-02-24T11:11:43;31.33;;;14.77;;
43325;SDS011;28920;59.862;30.636;2023-02-24T11:14:29;27.80;;;14.60;;
43325;SDS011;28920;59.862;30.636;2023-02-24T11:17:18;27.02;;;15.35;;
43325;SDS011;28920;59.862;30.636;2023-02-24T11:19:46;25.75;;;14.30;;
43325;SDS011;28920;59.862;30.636;2023-02-24T11:22:15;33.28;;;15.95;;
43325;SDS011;28920;59.862;30.636;2023-02-24T11:24:43;30.27;;;14.68;;
43325;SDS011;28920;59.862;30.636;2023-02-24T11:27:10;32.95;;;16.83;;
43325;SDS011;28920;59.862;30.636;2023-02-24T11:29:55;33.25;;;17.37;;
43325;SDS011;28920;59.862;30.636;2023-02-24T11:32:29;39.17;;;16.58;;
43325;SDS011;28920;59.862;30.636;2023-02-24T11:35:01;27.50;;;14.00;;
43325;SDS011;28920;59.862;30.636;2023-02-24T11:37:32;32.72;;;17.08;;
43325;SDS011;28920;59.862;30.636;2023-02-24T11:40:03;29.40;;;15.13;;
43325;SDS011;28920;59.862;30.636;2023-02-24T11:42:35;24.50;;;13.43;;
43325;SDS011;28920;59.862;30.636;2023-02-24T11:45:03;33.85;;;15.93;;
43325;SDS011;28920;59.862;30.636;2023-02-24T11:47:35;29.50;;;17.77;;
43325;SDS011;28920;59.862;30.636;2023-02-24T11:50:06;38.58;;;19.08;;
43325;SDS011;28920;59.862;30.636;2023-02-24T11:52:39;35.70;;;17.98;;
43325;SDS011;28920;59.862;30.636;2023-02-24T11:55:13;30.55;;;17.12;;
43325;SDS011;28920;59.862;30.636;2023-02-24T12:00:09;27.60;;;16.30;;
43325;SDS011;28920;59.862;30.636;2023-02-24T12:02:41;35.47;;;16.95;;
43325;SDS011;28920;59.862;30.636;2023-02-24T12:05:12;27.00;;;15.18;;
43325;SDS011;28920;59.862;30.636;2023-02-24T12:07:40;30.95;;;15.52;;
43325;SDS011;28920;59.862;30.636;2023-02-24T12:10:12;44.55;;;24.17;;
43325;SDS011;28920;59.862;30.636;2023-02-24T12:12:40;29.75;;;17.62;;
43325;SDS011;28920;59.862;30.636;2023-02-24T12:15:11;32.53;;;19.30;;
43325;SDS011;28920;59.862;30.636;2023-02-24T12:17:40;33.83;;;18.15;;
43325;SDS011;28920;59.862;30.636;2023-02-24T12:20:14;25.98;;;14.25;;
43325;SDS011;28920;59.862;30.636;2023-02-24T12:22:46;23.15;;;14.63;;
43325;SDS011;28920;59.862;30.636;2023-02-24T12:25:15;27.10;;;16.10;;
43325;SDS011;28920;59.862;30.636;2023-02-24T12:27:48;31.00;;;14.68;;
43325;SDS011;28920;59.862;30.636;2023-02-24T12:33:26;26.70;;;13.45;;
43325;SDS011;28920;59.862;30.636;2023-02-24T12:35:57;26.65;;;15.77;;
43325;SDS011;28920;59.862;30.636;2023-02-24T12:38:34;25.55;;;14.57;;
43325;SDS011;28920;59.862;30.636;2023-02-24T12:41:09;27.25;;;15.90;;
43325;SDS011;28920;59.862;30.636;2023-02-24T12:43:41;26.00;;;15.40;;
43325;SDS011;28920;59.862;30.636;2023-02-24T12:46:14;32.53;;;17.87;;
43325;SDS011;28920;59.862;30.636;2023-02-24T12:48:50;27.92;;;15.05;;
43325;SDS011;28920;59.862;30.636;2023-02-24T12:51:22;25.62;;;15.63;;
43325;SDS011;28920;59.862;30.636;2023-02-24T12:53:53;29.50;;;15.45;;
43325;SDS011;28920;59.862;30.636;2023-02-24T12:56:23;25.55;;;13.75;;
43325;SDS011;28920;59.862;30.636;2023-02-24T12:58:50;24.20;;;15.05;;
43325;SDS011;28920;59.862;30.636;2023-02-24T13:01:21;25.17;;;14.48;;
43325;SDS011;28920;59.862;30.636;2023-02-24T13:03:59;23.38;;;13.65;;
43325;SDS011;28920;59.862;30.636;2023-02-24T13:06:36;27.08;;;14.65;;
43325;SDS011;28920;59.862;30.636;2023-02-24T13:09:04;29.25;;;13.75;;
43325;SDS011;28920;59.862;30.636;2023-02-24T13:11:37;25.17;;;13.88;;
43325;SDS011;28920;59.862;30.636;2023-02-24T13:14:09;26.85;;;14.05;;
43325;SDS011;28920;59.862;30.636;2023-02-24T13:16:37;31.77;;;18.00;;
43325;SDS011;28920;59.862;30.636;2023-02-24T13:19:05;37.88;;;20.42;;
43325;SDS011;28920;59.862;30.636;2023-02-24T13:21:32;35.95;;;17.48;;
43325;SDS011;28920;59.862;30.636;2023-02-24T13:24:00;29.92;;;16.17;;
43325;SDS011;28920;59.862;30.636;2023-02-24T13:26:28;40.92;;;20.08;;
43325;SDS011;28920;59.862;30.636;2023-02-24T13:28:57;35.60;;;19.48;;
43325;SDS011;28920;59.862;30.636;2023-02-24T13:31:24;38.95;;;21.90;;
43325;SDS011;28920;59.862;30.636;2023-02-24T13:33:52;38.47;;;21.98;;
43325;SDS011;28920;59.862;30.636;2023-02-24T13:36:21;34.42;;;21.90;;
43325;SDS011;28920;59.862;30.636;2023-02-24T13:38:48;32.38;;;19.45;;
43325;SDS011;28920;59.862;30.636;2023-02-24T13:44:20;39.92;;;23.02;;
43325;SDS011;28920;59.862;30.636;2023-02-24T13:46:48;34.65;;;19.15;;
43325;SDS011;28920;59.862;30.636;2023-02-24T13:49:21;39.78;;;21.90;;
43325;SDS011;28920;59.862;30.636;2023-02-24T13:51:54;40.53;;;21.73;;
43325;SDS011;28920;59.862;30.636;2023-02-24T13:54:28;31.55;;;18.77;;
43325;SDS011;28920;59.862;30.636;2023-02-24T13:57:00;35.50;;;20.30;;
43325;SDS011;28920;59.862;30.636;2023-02-24T13:59:33;39.03;;;20.98;;
43325;SDS011;28920;59.862;30.636;2023-02-24T14:02:09;32.38;;;18.50;;
43325;SDS011;28920;59.862;30.636;2023-02-24T14:04:43;33.78;;;19.08;;
43325;SDS011;28920;59.862;30.636;2023-02-24T14:07:11;32.38;;;19.42;;
43325;SDS011;28920;59.862;30.636;2023-02-24T14:09:43;39.38;;;22.55;;
43325;SDS011;28920;59.862;30.636;2023-02-24T14:12:11;33.83;;;17.77;;
43325;SDS011;28920;59.862;30.636;2023-02-24T14:14:39;33.65;;;19.40;;
43325;SDS011;28920;59.862;30.636;2023-02-24T14:17:06;34.15;;;18.90;;
43325;SDS011;28920;59.862;30.636;2023-02-24T14:19:44;33.53;;;17.37;;
43325;SDS011;28920;59.862;30.636;2023-02-24T14:22:13;32.92;;;17.48;;
43325;SDS011;28920;59.862;30.636;2023-02-24T14:24:42;31.92;;;18.42;;
43325;SDS011;28920;59.862;30.636;2023-02-24T14:27:13;28.73;;;17.40;;
43325;SDS011;28920;59.862;30.636;2023-02-24T14:29:45;29.37;;;16.77;;
43325;SDS011;28920;59.862;30.636;2023-02-24T14:32:15;28.00;;;18.35;;
43325;SDS011;28920;59.862;30.636;2023-02-24T14:34:44;32.10;;;17.98;;
43325;SDS011;28920;59.862;30.636;2023-02-24T14:37:11;35.38;;;18.92;;
43325;SDS011;28920;59.862;30.636;2023-02-24T14:39:48;32.95;;;18.02;;
43325;SDS011;28920;59.862;30.636;2023-02-24T14:42:15;28.70;;;15.68;;
43325;SDS011;28920;59.862;30.636;2023-02-24T14:44:43;29.05;;;15.98;;
43325;SDS011;28920;59.862;30.636;2023-02-24T14:47:10;25.23;;;15.70;;
43325;SDS011;28920;59.862;30.636;2023-02-24T14:49:38;22.77;;;13.30;;
43325;SDS011;28920;59.862;30.636;2023-02-24T14:52:06;25.73;;;15.07;;
43325;SDS011;28920;59.862;30.636;2023-02-24T14:54:37;24.48;;;14.00;;
43325;SDS011;28920;59.862;30.636;2023-02-24T14:57:10;24.90;;;13.73;;